Station Historical Data
Daily Summary for January 23, 2012 Units:  Both    English   Metric
« Previous Day
Next Day »
Daily Weekly Monthly Yearly Custom
  High: Low: Average:
Temperature: 63.7 °F /  17.6 °C 41.7 °F /  5.4 °C 55.6 °F /  13.1 °C
Dew Point: 62.0 °F /  16.7 °C 37.3 °F /  2.9 °C 47.8 °F /  8.8 °C
Humidity: 95% 53% 76%
Wind Speed: 20.0mph /  32.2km/h - 6.9mph /  11.1km/h
Wind Gust: 26.0mph /  41.8km/h - -
Wind- - SW
Pressure: 30.07 in /  1018.2 hPa 29.71 in /  1006 hPa -
Precipitation: 0.95 in /  24.13 mm    
Historical Graphs
 
 
Tabular Data for January 23, 2012
Time Temperature Dew Point Pressure Wind Wind Speed Wind Gust Humidity Rainfall Rate (Hourly) Conditions
00:00 61.2 °F /  16.2 °C 59.5 °F /  15.3 °C 29.80in /  1009hPa SSE 10.0mph /  16.1km/h 22.0mph /  35.4km/h 94% 0.00in /  0mm
00:05 61.3 °F /  16.3 °C 59.6 °F /  15.3 °C 29.80in /  1009hPa ESE 14.0mph /  22.5km/h 22.0mph /  35.4km/h 94% 0.00in /  0mm
00:10 61.3 °F /  16.3 °C 59.6 °F /  15.3 °C 29.79in /  1008.7hPa SE 11.0mph /  17.7km/h 19.0mph /  30.6km/h 94% 0.00in /  0mm
00:16 61.2 °F /  16.2 °C 59.5 °F /  15.3 °C 29.78in /  1008.4hPa SE 17.0mph /  27.4km/h 20.0mph /  32.2km/h 94% 0.00in /  0mm
00:21 61.3 °F /  16.3 °C 59.6 °F /  15.3 °C 29.78in /  1008.4hPa SE 11.0mph /  17.7km/h 18.0mph /  29km/h 94% 0.00in /  0mm
00:26 61.3 °F /  16.3 °C 59.6 °F /  15.3 °C 29.77in /  1008hPa SE 14.0mph /  22.5km/h 18.0mph /  29km/h 94% 0.00in /  0mm
00:31 61.4 °F /  16.3 °C 59.7 °F /  15.4 °C 29.77in /  1008hPa SE 11.0mph /  17.7km/h 18.0mph /  29km/h 94% 0.00in /  0mm
00:36 61.3 °F /  16.3 °C 59.6 °F /  15.3 °C 29.76in /  1007.7hPa ESE 14.0mph /  22.5km/h 20.0mph /  32.2km/h 94% 0.00in /  0mm
00:41 61.4 °F /  16.3 °C 59.7 °F /  15.4 °C 29.75in /  1007.3hPa ESE 13.0mph /  20.9km/h 18.0mph /  29km/h 94% 0.00in /  0mm
00:46 61.4 °F /  16.3 °C 60.0 °F /  15.6 °C 29.75in /  1007.3hPa SE 14.0mph /  22.5km/h 15.0mph /  24.1km/h 95% 0.00in /  0mm
00:51 61.6 °F /  16.4 °C 60.2 °F /  15.7 °C 29.74in /  1007hPa SE 10.0mph /  16.1km/h 15.0mph /  24.1km/h 95% 0.24in /  6.1mm
00:56 61.7 °F /  16.5 °C 60.3 °F /  15.7 °C 29.73in /  1006.7hPa ESE 13.0mph /  20.9km/h 20.0mph /  32.2km/h 95% 0.12in /  3.05mm
01:01 62.0 °F /  16.7 °C 60.6 °F /  15.9 °C 29.73in /  1006.7hPa SSE 13.0mph /  20.9km/h 26.0mph /  41.8km/h 95% 0.07in /  1.78mm
01:06 62.3 °F /  16.8 °C 60.6 °F /  15.9 °C 29.72in /  1006.3hPa SE 20.0mph /  32.2km/h 20.0mph /  32.2km/h 94% 0.04in /  1.02mm
01:11 62.4 °F /  16.9 °C 60.7 °F /  15.9 °C 29.72in /  1006.3hPa SE 16.0mph /  25.7km/h 22.0mph /  35.4km/h 94% 0.00in /  0mm
01:16 62.4 °F /  16.9 °C 60.7 °F /  15.9 °C 29.71in /  1006hPa SE 20.0mph /  32.2km/h 21.0mph /  33.8km/h 94% 0.00in /  0mm
01:21 62.5 °F /  16.9 °C 60.8 °F /  16 °C 29.71in /  1006hPa SSE 14.0mph /  22.5km/h 20.0mph /  32.2km/h 94% 0.00in /  0mm
01:26 62.5 °F /  16.9 °C 60.8 °F /  16 °C 29.73in /  1006.7hPa SE 13.0mph /  20.9km/h 23.0mph /  37km/h 94% 0.00in /  0mm
01:31 62.5 °F /  16.9 °C 60.8 °F /  16 °C 29.74in /  1007hPa SSE 16.0mph /  25.7km/h 19.0mph /  30.6km/h 94% 1.29in /  32.77mm
01:36 62.2 °F /  16.8 °C 60.8 °F /  16 °C 29.73in /  1006.7hPa SSW 9.0mph /  14.5km/h 21.0mph /  33.8km/h 95% 1.09in /  27.69mm
01:38 62.2 °F /  16.8 °C 60.8 °F /  16 °C 29.74in /  1007hPa SSW 7.0mph /  11.3km/h 21.0mph /  33.8km/h 95% 0.70in /  17.78mm
01:43 62.4 °F /  16.9 °C 61.0 °F /  16.1 °C 29.72in /  1006.3hPa SE 5.0mph /  8km/h 21.0mph /  33.8km/h 95% 0.66in /  16.76mm
01:48 62.3 °F /  16.8 °C 60.8 °F /  16 °C 29.72in /  1006.3hPa SSE 13.0mph /  20.9km/h 19.0mph /  30.6km/h 95% 0.27in /  6.86mm
01:53 62.2 °F /  16.8 °C 60.8 °F /  16 °C 29.74in /  1007hPa WSW 10.0mph /  16.1km/h 14.0mph /  22.5km/h 95% 4.20in /  106.68mm
01:58 62.5 °F /  16.9 °C 61.0 °F /  16.1 °C 29.76in /  1007.7hPa SE 13.0mph /  20.9km/h 25.0mph /  40.2km/h 95% 2.19in /  55.63mm
02:03 62.8 °F /  17.1 °C 61.3 °F /  16.3 °C 29.75in /  1007.3hPa SW 6.0mph /  9.7km/h 14.0mph /  22.5km/h 95% 0.12in /  3.05mm
02:08 63.0 °F /  17.2 °C 61.5 °F /  16.4 °C 29.76in /  1007.7hPa SSE 11.0mph /  17.7km/h 13.0mph /  20.9km/h 95% 0.06in /  1.52mm
02:13 63.5 °F /  17.5 °C 61.8 °F /  16.6 °C 29.77in /  1008hPa South 6.0mph /  9.7km/h 12.0mph /  19.3km/h 94% 0.04in /  1.02mm
02:18 63.4 °F /  17.4 °C 61.7 °F /  16.5 °C 29.76in /  1007.7hPa South 11.0mph /  17.7km/h 11.0mph /  17.7km/h 94% 0.00in /  0mm
02:23 63.7 °F /  17.6 °C 62.0 °F /  16.7 °C 29.75in /  1007.3hPa SSE 9.0mph /  14.5km/h 16.0mph /  25.7km/h 94% 0.00in /  0mm
02:28 63.7 °F /  17.6 °C 62.0 °F /  16.7 °C 29.75in /  1007.3hPa SSE 6.0mph /  9.7km/h 12.0mph /  19.3km/h 94% 0.00in /  0mm
02:33 63.5 °F /  17.5 °C 61.8 °F /  16.6 °C 29.75in /  1007.3hPa SSE 8.0mph /  12.9km/h 10.0mph /  16.1km/h 94% 0.00in /  0mm
02:38 63.3 °F /  17.4 °C 61.8 °F /  16.6 °C 29.74in /  1007hPa SE 9.0mph /  14.5km/h 16.0mph /  25.7km/h 95% 0.18in /  4.57mm
02:43 63.3 °F /  17.4 °C 61.8 °F /  16.6 °C 29.75in /  1007.3hPa SSE 11.0mph /  17.7km/h 11.0mph /  17.7km/h 95% 0.07in /  1.78mm
02:48 63.3 °F /  17.4 °C 61.8 °F /  16.6 °C 29.77in /  1008hPa SW 3.0mph /  4.8km/h 8.0mph /  12.9km/h 95% 0.05in /  1.27mm
02:53 61.7 °F /  16.5 °C 58.1 °F /  14.5 °C 29.78in /  1008.4hPa WSW 14.0mph /  22.5km/h 19.0mph /  30.6km/h 88% 0.00in /  0mm
02:58 59.5 °F /  15.3 °C 56.3 °F /  13.5 °C 29.79in /  1008.7hPa West 15.0mph /  24.1km/h 21.0mph /  33.8km/h 89% 0.43in /  10.92mm
03:03 58.3 °F /  14.6 °C 55.4 °F /  13 °C 29.80in /  1009hPa West 16.0mph /  25.7km/h 21.0mph /  33.8km/h 90% 0.36in /  9.14mm
03:08 57.7 °F /  14.3 °C 55.1 °F /  12.8 °C 29.80in /  1009hPa West 9.0mph /  14.5km/h 18.0mph /  29km/h 91% 0.50in /  12.7mm
03:13 57.2 °F /  14 °C 54.6 °F /  12.6 °C 29.78in /  1008.4hPa West 15.0mph /  24.1km/h 19.0mph /  30.6km/h 91% 0.10in /  2.54mm
03:18 56.9 °F /  13.8 °C 54.6 °F /  12.6 °C 29.79in /  1008.7hPa West 7.0mph /  11.3km/h 17.0mph /  27.4km/h 92% 0.05in /  1.27mm
03:23 56.7 °F /  13.7 °C 54.1 °F /  12.3 °C 29.81in /  1009.4hPa WSW 9.0mph /  14.5km/h 15.0mph /  24.1km/h 91% 0.05in /  1.27mm
03:28 56.7 °F /  13.7 °C 53.5 °F /  11.9 °C 29.81in /  1009.4hPa West 15.0mph /  24.1km/h 22.0mph /  35.4km/h 89% 0.05in /  1.27mm
03:33 56.3 °F /  13.5 °C 53.4 °F /  11.9 °C 29.78in /  1008.4hPa West 7.0mph /  11.3km/h 21.0mph /  33.8km/h 90% 0.06in /  1.52mm
03:38 56.0 °F /  13.3 °C 53.1 °F /  11.7 °C 29.78in /  1008.4hPa West 12.0mph /  19.3km/h 21.0mph /  33.8km/h 90% 0.06in /  1.52mm
03:43 55.9 °F /  13.3 °C 53.0 °F /  11.7 °C 29.77in /  1008hPa SW 6.0mph /  9.7km/h 13.0mph /  20.9km/h 90% 0.04in /  1.02mm
03:49 55.8 °F /  13.2 °C 53.2 °F /  11.8 °C 29.78in /  1008.4hPa WSW 8.0mph /  12.9km/h 11.0mph /  17.7km/h 91% 0.00in /  0mm
03:54 55.8 °F /  13.2 °C 53.2 °F /  11.8 °C 29.77in /  1008hPa WSW 6.0mph /  9.7km/h 9.0mph /  14.5km/h 91% 0.00in /  0mm
03:58 55.7 °F /  13.2 °C 53.4 °F /  11.9 °C 29.77in /  1008hPa SW 5.0mph /  8km/h 7.0mph /  11.3km/h 92% 0.00in /  0mm
04:04 55.7 °F /  13.2 °C 53.4 °F /  11.9 °C 29.77in /  1008hPa SW 3.0mph /  4.8km/h 8.0mph /  12.9km/h 92% 0.00in /  0mm
04:09 55.8 °F /  13.2 °C 53.5 °F /  11.9 °C 29.77in /  1008hPa SW 7.0mph /  11.3km/h 8.0mph /  12.9km/h 92% 0.00in /  0mm
04:14 55.9 °F /  13.3 °C 53.6 °F /  12 °C 29.77in /  1008hPa SW 4.0mph /  6.4km/h 7.0mph /  11.3km/h 92% 0.00in /  0mm
04:19 56.0 °F /  13.3 °C 53.7 °F /  12.1 °C 29.77in /  1008hPa SW 5.0mph /  8km/h 8.0mph /  12.9km/h 92% 0.00in /  0mm
04:24 55.9 °F /  13.3 °C 53.9 °F /  12.2 °C 29.77in /  1008hPa SW 4.0mph /  6.4km/h 5.0mph /  8km/h 93% 0.00in /  0mm
04:29 56.1 °F /  13.4 °C 53.8 °F /  12.1 °C 29.77in /  1008hPa SSE 8.0mph /  12.9km/h 8.0mph /  12.9km/h 92% 0.00in /  0mm
04:34 56.4 °F /  13.6 °C 53.8 °F /  12.1 °C 29.77in /  1008hPa WSW 5.0mph /  8km/h 8.0mph /  12.9km/h 91% 0.00in /  0mm
04:39 56.6 °F /  13.7 °C 54.0 °F /  12.2 °C 29.77in /  1008hPa SW 4.0mph /  6.4km/h 7.0mph /  11.3km/h 91% 0.00in /  0mm
04:44 56.7 °F /  13.7 °C 54.1 °F /  12.3 °C 29.77in /  1008hPa SSW 5.0mph /  8km/h 8.0mph /  12.9km/h 91% 0.00in /  0mm
04:49 56.8 °F /  13.8 °C 54.2 °F /  12.3 °C 29.77in /  1008hPa South 4.0mph /  6.4km/h 9.0mph /  14.5km/h 91% 0.00in /  0mm
04:54 56.9 °F /  13.8 °C 54.3 °F /  12.4 °C 29.77in /  1008hPa SSE 2.0mph /  3.2km/h 8.0mph /  12.9km/h 91% 0.00in /  0mm
04:59 56.9 °F /  13.8 °C 54.3 °F /  12.4 °C 29.77in /  1008hPa SSW 7.0mph /  11.3km/h 9.0mph /  14.5km/h 91% 0.00in /  0mm
05:04 57.1 °F /  13.9 °C 54.2 °F /  12.3 °C 29.77in /  1008hPa South 7.0mph /  11.3km/h 9.0mph /  14.5km/h 90% 0.00in /  0mm
05:09 57.2 °F /  14 °C 54.3 °F /  12.4 °C 29.77in /  1008hPa South 4.0mph /  6.4km/h 8.0mph /  12.9km/h 90% 0.00in /  0mm
05:14 57.2 °F /  14 °C 54.3 °F /  12.4 °C 29.77in /  1008hPa SSW 3.0mph /  4.8km/h 8.0mph /  12.9km/h 90% 0.00in /  0mm
05:19 57.4 °F /  14.1 °C 54.5 °F /  12.5 °C 29.77in /  1008hPa SW 5.0mph /  8km/h 10.0mph /  16.1km/h 90% 0.00in /  0mm
05:24 57.3 °F /  14.1 °C 54.1 °F /  12.3 °C 29.77in /  1008hPa SW 6.0mph /  9.7km/h 9.0mph /  14.5km/h 89% 0.00in /  0mm
05:29 57.4 °F /  14.1 °C 54.2 °F /  12.3 °C 29.76in /  1007.7hPa SW 9.0mph /  14.5km/h 9.0mph /  14.5km/h 89% 0.00in /  0mm
05:34 57.5 °F /  14.2 °C 54.3 °F /  12.4 °C 29.76in /  1007.7hPa SW 6.0mph /  9.7km/h 9.0mph /  14.5km/h 89% 0.00in /  0mm
05:37 57.5 °F /  14.2 °C 54.3 °F /  12.4 °C 29.76in /  1007.7hPa South 7.0mph /  11.3km/h 8.0mph /  12.9km/h 89% 0.00in /  0mm
05:42 57.7 °F /  14.3 °C 54.5 °F /  12.5 °C 29.76in /  1007.7hPa South 5.0mph /  8km/h 8.0mph /  12.9km/h 89% 0.00in /  0mm
05:47 57.7 °F /  14.3 °C 54.2 °F /  12.3 °C 29.77in /  1008hPa South 4.0mph /  6.4km/h 9.0mph /  14.5km/h 88% 0.00in /  0mm
05:52 57.8 °F /  14.3 °C 54.3 °F /  12.4 °C 29.77in /  1008hPa SW 3.0mph /  4.8km/h 8.0mph /  12.9km/h 88% 0.00in /  0mm
05:57 57.5 °F /  14.2 °C 54.3 °F /  12.4 °C 29.77in /  1008hPa SW 5.0mph /  8km/h 8.0mph /  12.9km/h 89% 0.00in /  0mm
06:02 57.8 °F /  14.3 °C 54.6 °F /  12.6 °C 29.77in /  1008hPa SSW 6.0mph /  9.7km/h 9.0mph /  14.5km/h 89% 0.00in /  0mm
06:07 57.9 °F /  14.4 °C 54.4 °F /  12.4 °C 29.77in /  1008hPa South 4.0mph /  6.4km/h 11.0mph /  17.7km/h 88% 0.00in /  0mm
06:12 58.0 °F /  14.4 °C 54.5 °F /  12.5 °C 29.77in /  1008hPa SSW 5.0mph /  8km/h 11.0mph /  17.7km/h 88% 0.00in /  0mm
06:17 57.8 °F /  14.3 °C 54.3 °F /  12.4 °C 29.77in /  1008hPa SSW 9.0mph /  14.5km/h 11.0mph /  17.7km/h 88% 0.00in /  0mm
06:22 58.0 °F /  14.4 °C 54.5 °F /  12.5 °C 29.77in /  1008hPa SSW 11.0mph /  17.7km/h 11.0mph /  17.7km/h 88% 0.00in /  0mm
06:27 58.0 °F /  14.4 °C 54.5 °F /  12.5 °C 29.77in /  1008hPa SW 6.0mph /  9.7km/h 12.0mph /  19.3km/h 88% 0.00in /  0mm
06:32 58.0 °F /  14.4 °C 54.2 °F /  12.3 °C 29.78in /  1008.4hPa SW 13.0mph /  20.9km/h 14.0mph /  22.5km/h 87% 0.00in /  0mm
06:37 58.3 °F /  14.6 °C 54.1 °F /  12.3 °C 29.78in /  1008.4hPa West 10.0mph /  16.1km/h 13.0mph /  20.9km/h 86% 0.00in /  0mm
06:42 58.2 °F /  14.6 °C 54.0 °F /  12.2 °C 29.78in /  1008.4hPa SW 9.0mph /  14.5km/h 12.0mph /  19.3km/h 86% 0.00in /  0mm
06:47 58.4 °F /  14.7 °C 53.9 °F /  12.2 °C 29.78in /  1008.4hPa SW 5.0mph /  8km/h 16.0mph /  25.7km/h 85% 0.00in /  0mm
06:53 58.4 °F /  14.7 °C 53.6 °F /  12 °C 29.78in /  1008.4hPa WSW 11.0mph /  17.7km/h 17.0mph /  27.4km/h 84% 0.00in /  0mm
06:58 58.6 °F /  14.8 °C 53.5 °F /  11.9 °C 29.78in /  1008.4hPa WSW 12.0mph /  19.3km/h 20.0mph /  32.2km/h 83% 0.00in /  0mm
07:03 58.5 °F /  14.7 °C 53.0 °F /  11.7 °C 29.79in /  1008.7hPa WSW 10.0mph /  16.1km/h 18.0mph /  29km/h 82% 0.00in /  0mm
07:08 58.4 °F /  14.7 °C 53.3 °F /  11.8 °C 29.79in /  1008.7hPa WSW 11.0mph /  17.7km/h 16.0mph /  25.7km/h 83% 0.00in /  0mm
07:13 58.3 °F /  14.6 °C 52.8 °F /  11.6 °C 29.79in /  1008.7hPa SW 7.0mph /  11.3km/h 16.0mph /  25.7km/h 82% 0.00in /  0mm
07:18 58.3 °F /  14.6 °C 52.8 °F /  11.6 °C 29.79in /  1008.7hPa SW 12.0mph /  19.3km/h 13.0mph /  20.9km/h 82% 0.00in /  0mm
07:23 58.2 °F /  14.6 °C 52.7 °F /  11.5 °C 29.79in /  1008.7hPa WSW 10.0mph /  16.1km/h 16.0mph /  25.7km/h 82% 0.00in /  0mm
07:28 58.0 °F /  14.4 °C 52.2 °F /  11.2 °C 29.79in /  1008.7hPa SW 11.0mph /  17.7km/h 11.0mph /  17.7km/h 81% 0.00in /  0mm
07:33 58.2 °F /  14.6 °C 52.1 °F /  11.2 °C 29.79in /  1008.7hPa SW 17.0mph /  27.4km/h 17.0mph /  27.4km/h 80% 0.00in /  0mm
07:38 58.2 °F /  14.6 °C 51.7 °F /  10.9 °C 29.79in /  1008.7hPa WSW 7.0mph /  11.3km/h 15.0mph /  24.1km/h 79% 0.00in /  0mm
07:43 58.3 °F /  14.6 °C 51.5 °F /  10.8 °C 29.79in /  1008.7hPa SW 8.0mph /  12.9km/h 14.0mph /  22.5km/h 78% 0.00in /  0mm
07:48 58.3 °F /  14.6 °C 51.5 °F /  10.8 °C 29.80in /  1009hPa WSW 11.0mph /  17.7km/h 13.0mph /  20.9km/h 78% 0.00in /  0mm
07:53 58.3 °F /  14.6 °C 51.5 °F /  10.8 °C 29.79in /  1008.7hPa SSW 7.0mph /  11.3km/h 12.0mph /  19.3km/h 78% 0.00in /  0mm
07:58 58.0 °F /  14.4 °C 51.5 °F /  10.8 °C 29.80in /  1009hPa SW 8.0mph /  12.9km/h 11.0mph /  17.7km/h 79% 0.00in /  0mm
08:03 57.8 °F /  14.3 °C 51.7 °F /  10.9 °C 29.80in /  1009hPa SSW 2.0mph /  3.2km/h 10.0mph /  16.1km/h 80% 0.00in /  0mm
08:08 57.2 °F /  14 °C 51.8 °F /  11 °C 29.80in /  1009hPa WSW 9.0mph /  14.5km/h 9.0mph /  14.5km/h 82% 0.00in /  0mm
08:13 57.2 °F /  14 °C 52.7 °F /  11.5 °C 29.80in /  1009hPa South 4.0mph /  6.4km/h 9.0mph /  14.5km/h 85% 0.00in /  0mm
08:18 57.2 °F /  14 °C 52.7 °F /  11.5 °C 29.80in /  1009hPa SW 7.0mph /  11.3km/h 12.0mph /  19.3km/h 85% 0.00in /  0mm
08:23 57.2 °F /  14 °C 53.1 °F /  11.7 °C 29.80in /  1009hPa SSW 11.0mph /  17.7km/h 12.0mph /  19.3km/h 86% 0.00in /  0mm
08:28 57.2 °F /  14 °C 53.1 °F /  11.7 °C 29.80in /  1009hPa SW 8.0mph /  12.9km/h 12.0mph /  19.3km/h 86% 0.00in /  0mm
08:33 57.4 °F /  14.1 °C 53.2 °F /  11.8 °C 29.81in /  1009.4hPa WSW 10.0mph /  16.1km/h 13.0mph /  20.9km/h 86% 0.00in /  0mm
08:38 57.5 °F /  14.2 °C 53.3 °F /  11.8 °C 29.81in /  1009.4hPa SW 7.0mph /  11.3km/h 12.0mph /  19.3km/h 86% 0.00in /  0mm
08:43 57.3 °F /  14.1 °C 53.5 °F /  11.9 °C 29.81in /  1009.4hPa SSW 8.0mph /  12.9km/h 8.0mph /  12.9km/h 87% 0.00in /  0mm
08:48 57.4 °F /  14.1 °C 53.6 °F /  12 °C 29.82in /  1009.7hPa SW 9.0mph /  14.5km/h 13.0mph /  20.9km/h 87% 0.00in /  0mm
08:53 57.6 °F /  14.2 °C 53.8 °F /  12.1 °C 29.82in /  1009.7hPa SW 8.0mph /  12.9km/h 12.0mph /  19.3km/h 87% 0.00in /  0mm
08:58 57.8 °F /  14.3 °C 53.7 °F /  12.1 °C 29.82in /  1009.7hPa WSW 7.0mph /  11.3km/h 11.0mph /  17.7km/h 86% 0.00in /  0mm
09:03 58.0 °F /  14.4 °C 53.2 °F /  11.8 °C 29.83in /  1010hPa SW 8.0mph /  12.9km/h 16.0mph /  25.7km/h 84% 0.00in /  0mm
09:08 58.2 °F /  14.6 °C 52.7 °F /  11.5 °C 29.83in /  1010hPa SW 12.0mph /  19.3km/h 16.0mph /  25.7km/h 82% 0.00in /  0mm
09:13 58.2 °F /  14.6 °C 52.4 °F /  11.3 °C 29.83in /  1010hPa WSW 11.0mph /  17.7km/h 15.0mph /  24.1km/h 81% 0.00in /  0mm
09:18 58.1 °F /  14.5 °C 52.0 °F /  11.1 °C 29.84in /  1010.4hPa SSW 13.0mph /  20.9km/h 19.0mph /  30.6km/h 80% 0.00in /  0mm
09:23 58.1 °F /  14.5 °C 50.9 °F /  10.5 °C 29.85in /  1010.7hPa WSW 13.0mph /  20.9km/h 18.0mph /  29km/h 77% 0.00in /  0mm
09:28 58.2 °F /  14.6 °C 51.0 °F /  10.6 °C 29.85in /  1010.7hPa WSW 8.0mph /  12.9km/h 18.0mph /  29km/h 77% 0.00in /  0mm
09:33 58.2 °F /  14.6 °C 51.0 °F /  10.6 °C 29.86in /  1011.1hPa WSW 6.0mph /  9.7km/h 18.0mph /  29km/h 77% 0.00in /  0mm
09:38 58.2 °F /  14.6 °C 50.3 °F /  10.2 °C 29.86in /  1011.1hPa WSW 11.0mph /  17.7km/h 19.0mph /  30.6km/h 75% 0.00in /  0mm
09:44 58.1 °F /  14.5 °C 50.9 °F /  10.5 °C 29.86in /  1011.1hPa SW 6.0mph /  9.7km/h 21.0mph /  33.8km/h 77% 0.00in /  0mm
09:48 58.0 °F /  14.4 °C 50.1 °F /  10.1 °C 29.87in /  1011.4hPa SW 8.0mph /  12.9km/h 21.0mph /  33.8km/h 75% 0.00in /  0mm
09:54 58.0 °F /  14.4 °C 50.5 °F /  10.3 °C 29.87in /  1011.4hPa WSW 11.0mph /  17.7km/h 15.0mph /  24.1km/h 76% 0.00in /  0mm
09:59 57.9 °F /  14.4 °C 50.0 °F /  10 °C 29.87in /  1011.4hPa SW 15.0mph /  24.1km/h 15.0mph /  24.1km/h 75% 0.00in /  0mm
10:04 57.8 °F /  14.3 °C 49.9 °F /  9.9 °C 29.87in /  1011.4hPa SSW 6.0mph /  9.7km/h 14.0mph /  22.5km/h 75% 0.00in /  0mm
10:09 57.8 °F /  14.3 °C 49.9 °F /  9.9 °C 29.88in /  1011.7hPa WSW 9.0mph /  14.5km/h 19.0mph /  30.6km/h 75% 0.00in /  0mm
10:14 57.7 °F /  14.3 °C 49.8 °F /  9.9 °C 29.88in /  1011.7hPa WNW 9.0mph /  14.5km/h 19.0mph /  30.6km/h 75% 0.00in /  0mm
10:19 57.9 °F /  14.4 °C 50.0 °F /  10 °C 29.89in /  1012.1hPa WSW 14.0mph /  22.5km/h 18.0mph /  29km/h 75% 0.00in /  0mm
10:24 58.1 °F /  14.5 °C 50.2 °F /  10.1 °C 29.89in /  1012.1hPa WSW 8.0mph /  12.9km/h 13.0mph /  20.9km/h 75% 0.00in /  0mm
10:29 58.2 °F /  14.6 °C 50.0 °F /  10 °C 29.89in /  1012.1hPa SW 9.0mph /  14.5km/h 16.0mph /  25.7km/h 74% 0.00in /  0mm
10:34 58.1 °F /  14.5 °C 49.9 °F /  9.9 °C 29.89in /  1012.1hPa West 11.0mph /  17.7km/h 15.0mph /  24.1km/h 74% 0.00in /  0mm
10:39 58.0 °F /  14.4 °C 49.8 °F /  9.9 °C 29.90in /  1012.4hPa WNW 11.0mph /  17.7km/h 13.0mph /  20.9km/h 74% 0.00in /  0mm
10:44 57.4 °F /  14.1 °C 48.5 °F /  9.2 °C 29.90in /  1012.4hPa WSW 14.0mph /  22.5km/h 20.0mph /  32.2km/h 72% 0.00in /  0mm
10:49 57.5 °F /  14.2 °C 49.3 °F /  9.6 °C 29.90in /  1012.4hPa SW 9.0mph /  14.5km/h 13.0mph /  20.9km/h 74% 0.00in /  0mm
10:50 57.6 °F /  14.2 °C 49.4 °F /  9.7 °C 29.90in /  1012.4hPa West 15.0mph /  24.1km/h 15.0mph /  24.1km/h 74% 0.00in /  0mm
10:55 57.8 °F /  14.3 °C 49.2 °F /  9.6 °C 29.90in /  1012.4hPa SW 12.0mph /  19.3km/h 16.0mph /  25.7km/h 73% 0.00in /  0mm
11:00 57.8 °F /  14.3 °C 49.6 °F /  9.8 °C 29.90in /  1012.4hPa SW 12.0mph /  19.3km/h 17.0mph /  27.4km/h 74% 0.00in /  0mm
11:05 58.0 °F /  14.4 °C 49.0 °F /  9.4 °C 29.91in /  1012.8hPa SW 15.0mph /  24.1km/h 18.0mph /  29km/h 72% 0.00in /  0mm
11:10 58.0 °F /  14.4 °C 49.8 °F /  9.9 °C 29.91in /  1012.8hPa WSW 8.0mph /  12.9km/h 13.0mph /  20.9km/h 74% 0.00in /  0mm
11:15 58.1 °F /  14.5 °C 49.9 °F /  9.9 °C 29.91in /  1012.8hPa SW 5.0mph /  8km/h 13.0mph /  20.9km/h 74% 0.00in /  0mm
11:20 58.2 °F /  14.6 °C 49.6 °F /  9.8 °C 29.91in /  1012.8hPa WSW 7.0mph /  11.3km/h 14.0mph /  22.5km/h 73% 0.00in /  0mm
11:25 58.3 °F /  14.6 °C 47.8 °F /  8.8 °C 29.91in /  1012.8hPa SW 7.0mph /  11.3km/h 15.0mph /  24.1km/h 68% 0.00in /  0mm
11:30 58.4 °F /  14.7 °C 47.1 °F /  8.4 °C 29.92in /  1013.1hPa WSW 11.0mph /  17.7km/h 15.0mph /  24.1km/h 66% 0.00in /  0mm
11:35 58.4 °F /  14.7 °C 47.9 °F /  8.8 °C 29.92in /  1013.1hPa SW 13.0mph /  20.9km/h 14.0mph /  22.5km/h 68% 0.00in /  0mm
11:40 58.4 °F /  14.7 °C 45.9 °F /  7.7 °C 29.92in /  1013.1hPa West 11.0mph /  17.7km/h 18.0mph /  29km/h 63% 0.00in /  0mm
11:45 58.1 °F /  14.5 °C 43.9 °F /  6.6 °C 29.92in /  1013.1hPa West 14.0mph /  22.5km/h 18.0mph /  29km/h 59% 0.00in /  0mm
11:46 58.0 °F /  14.4 °C 43.8 °F /  6.6 °C 29.92in /  1013.1hPa West 11.0mph /  17.7km/h 15.0mph /  24.1km/h 59% 0.00in /  0mm
11:51 57.9 °F /  14.4 °C 45.0 °F /  7.2 °C 29.92in /  1013.1hPa West 9.0mph /  14.5km/h 14.0mph /  22.5km/h 62% 0.00in /  0mm
11:56 57.7 °F /  14.3 °C 44.4 °F /  6.9 °C 29.92in /  1013.1hPa West 9.0mph /  14.5km/h 18.0mph /  29km/h 61% 0.00in /  0mm
12:01 57.8 °F /  14.3 °C 46.1 °F /  7.8 °C 29.92in /  1013.1hPa WSW 10.0mph /  16.1km/h 14.0mph /  22.5km/h 65% 0.00in /  0mm
12:06 57.9 °F /  14.4 °C 46.2 °F /  7.9 °C 29.92in /  1013.1hPa West 5.0mph /  8km/h 14.0mph /  22.5km/h 65% 0.00in /  0mm
12:11 57.8 °F /  14.3 °C 44.9 °F /  7.2 °C 29.92in /  1013.1hPa WSW 9.0mph /  14.5km/h 16.0mph /  25.7km/h 62% 0.00in /  0mm
12:16 57.8 °F /  14.3 °C 44.5 °F /  6.9 °C 29.92in /  1013.1hPa WSW 13.0mph /  20.9km/h 16.0mph /  25.7km/h 61% 0.00in /  0mm
12:21 57.4 °F /  14.1 °C 44.1 °F /  6.7 °C 29.92in /  1013.1hPa WSW 7.0mph /  11.3km/h 15.0mph /  24.1km/h 61% 0.00in /  0mm
12:26 57.4 °F /  14.1 °C 44.9 °F /  7.2 °C 29.92in /  1013.1hPa WSW 9.0mph /  14.5km/h 13.0mph /  20.9km/h 63% 0.00in /  0mm
12:31 57.1 °F /  13.9 °C 44.2 °F /  6.8 °C 29.92in /  1013.1hPa WSW 8.0mph /  12.9km/h 15.0mph /  24.1km/h 62% 0.00in /  0mm
12:36 57.2 °F /  14 °C 44.3 °F /  6.8 °C 29.92in /  1013.1hPa West 12.0mph /  19.3km/h 13.0mph /  20.9km/h 62% 0.00in /  0mm
12:41 57.5 °F /  14.2 °C 44.6 °F /  7 °C 29.92in /  1013.1hPa West 8.0mph /  12.9km/h 12.0mph /  19.3km/h 62% 0.00in /  0mm
12:46 57.6 °F /  14.2 °C 45.5 °F /  7.5 °C 29.91in /  1012.8hPa WSW 13.0mph /  20.9km/h 14.0mph /  22.5km/h 64% 0.00in /  0mm
12:51 57.4 °F /  14.1 °C 43.2 °F /  6.2 °C 29.92in /  1013.1hPa SW 17.0mph /  27.4km/h 17.0mph /  27.4km/h 59% 0.00in /  0mm
12:56 57.1 °F /  13.9 °C 42.5 °F /  5.8 °C 29.92in /  1013.1hPa SSW 13.0mph /  20.9km/h 16.0mph /  25.7km/h 58% 0.00in /  0mm
13:01 56.9 °F /  13.8 °C 43.2 °F /  6.2 °C 29.92in /  1013.1hPa SW 13.0mph /  20.9km/h 16.0mph /  25.7km/h 60% 0.00in /  0mm
13:06 57.0 °F /  13.9 °C 44.1 °F /  6.7 °C 29.92in /  1013.1hPa SW 8.0mph /  12.9km/h 13.0mph /  20.9km/h 62% 0.00in /  0mm
13:11 57.4 °F /  14.1 °C 44.1 °F /  6.7 °C 29.92in /  1013.1hPa WSW 8.0mph /  12.9km/h 13.0mph /  20.9km/h 61% 0.00in /  0mm
13:16 57.4 °F /  14.1 °C 42.3 °F /  5.7 °C 29.92in /  1013.1hPa West 11.0mph /  17.7km/h 17.0mph /  27.4km/h 57% 0.00in /  0mm
13:21 57.7 °F /  14.3 °C 42.1 °F /  5.6 °C 29.92in /  1013.1hPa WSW 13.0mph /  20.9km/h 13.0mph /  20.9km/h 56% 0.00in /  0mm
13:26 58.1 °F /  14.5 °C 43.9 °F /  6.6 °C 29.91in /  1012.8hPa WNW 7.0mph /  11.3km/h 9.0mph /  14.5km/h 59% 0.00in /  0mm
13:31 58.3 °F /  14.6 °C 44.0 °F /  6.7 °C 29.92in /  1013.1hPa West 9.0mph /  14.5km/h 12.0mph /  19.3km/h 59% 0.00in /  0mm
13:36 58.1 °F /  14.5 °C 43.0 °F /  6.1 °C 29.91in /  1012.8hPa West 9.0mph /  14.5km/h 10.0mph /  16.1km/h 57% 0.00in /  0mm
13:42 57.8 °F /  14.3 °C 42.2 °F /  5.7 °C 29.91in /  1012.8hPa WNW 6.0mph /  9.7km/h 11.0mph /  17.7km/h 56% 0.00in /  0mm
13:47 57.5 °F /  14.2 °C 42.4 °F /  5.8 °C 29.92in /  1013.1hPa West 4.0mph /  6.4km/h 11.0mph /  17.7km/h 57% 0.00in /  0mm
13:52 57.2 °F /  14 °C 42.1 °F /  5.6 °C 29.92in /  1013.1hPa West 7.0mph /  11.3km/h 15.0mph /  24.1km/h 57% 0.00in /  0mm
13:57 57.0 °F /  13.9 °C 43.3 °F /  6.3 °C 29.92in /  1013.1hPa SW 9.0mph /  14.5km/h 11.0mph /  17.7km/h 60% 0.00in /  0mm
14:02 56.7 °F /  13.7 °C 42.1 °F /  5.6 °C 29.92in /  1013.1hPa WSW 11.0mph /  17.7km/h 15.0mph /  24.1km/h 58% 0.00in /  0mm
14:07 56.8 °F /  13.8 °C 43.1 °F /  6.2 °C 29.92in /  1013.1hPa WSW 7.0mph /  11.3km/h 14.0mph /  22.5km/h 60% 0.00in /  0mm
14:12 56.6 °F /  13.7 °C 42.5 °F /  5.8 °C 29.92in /  1013.1hPa WSW 9.0mph /  14.5km/h 15.0mph /  24.1km/h 59% 0.00in /  0mm
14:17 56.2 °F /  13.4 °C 42.5 °F /  5.8 °C 29.92in /  1013.1hPa West 7.0mph /  11.3km/h 12.0mph /  19.3km/h 60% 0.00in /  0mm
14:22 56.0 °F /  13.3 °C 42.8 °F /  6 °C 29.92in /  1013.1hPa WSW 7.0mph /  11.3km/h 11.0mph /  17.7km/h 61% 0.00in /  0mm
14:27 56.3 °F /  13.5 °C 42.6 °F /  5.9 °C 29.92in /  1013.1hPa SW 8.0mph /  12.9km/h 13.0mph /  20.9km/h 60% 0.00in /  0mm
14:32 56.5 °F /  13.6 °C 42.8 °F /  6 °C 29.92in /  1013.1hPa SW 12.0mph /  19.3km/h 12.0mph /  19.3km/h 60% 0.00in /  0mm
14:37 56.4 °F /  13.6 °C 41.8 °F /  5.4 °C 29.92in /  1013.1hPa SW 6.0mph /  9.7km/h 10.0mph /  16.1km/h 58% 0.00in /  0mm
14:42 56.6 °F /  13.7 °C 41.6 °F /  5.3 °C 29.92in /  1013.1hPa WSW 6.0mph /  9.7km/h 12.0mph /  19.3km/h 57% 0.00in /  0mm
14:47 56.2 °F /  13.4 °C 41.6 °F /  5.3 °C 29.92in /  1013.1hPa WSW 5.0mph /  8km/h 13.0mph /  20.9km/h 58% 0.00in /  0mm
14:52 56.1 °F /  13.4 °C 42.0 °F /  5.6 °C 29.92in /  1013.1hPa West 5.0mph /  8km/h 11.0mph /  17.7km/h 59% 0.00in /  0mm
14:57 56.1 °F /  13.4 °C 41.1 °F /  5.1 °C 29.92in /  1013.1hPa SW 6.0mph /  9.7km/h 13.0mph /  20.9km/h 57% 0.00in /  0mm
15:02 56.2 °F /  13.4 °C 42.1 °F /  5.6 °C 29.92in /  1013.1hPa SW 12.0mph /  19.3km/h 12.0mph /  19.3km/h 59% 0.00in /  0mm
15:07 56.3 °F /  13.5 °C 42.2 °F /  5.7 °C 29.92in /  1013.1hPa SW 4.0mph /  6.4km/h 6.0mph /  9.7km/h 59% 0.00in /  0mm
15:12 56.5 °F /  13.6 °C 41.9 °F /  5.5 °C 29.92in /  1013.1hPa WSW 4.0mph /  6.4km/h 9.0mph /  14.5km/h 58% 0.00in /  0mm
15:17 56.6 °F /  13.7 °C 42.9 °F /  6.1 °C 29.92in /  1013.1hPa SW 9.0mph /  14.5km/h 10.0mph /  16.1km/h 60% 0.00in /  0mm
15:22 56.8 °F /  13.8 °C 41.3 °F /  5.2 °C 29.92in /  1013.1hPa SW 11.0mph /  17.7km/h 12.0mph /  19.3km/h 56% 0.00in /  0mm
15:27 56.8 °F /  13.8 °C 41.3 °F /  5.2 °C 29.93in /  1013.4hPa SSW 7.0mph /  11.3km/h 11.0mph /  17.7km/h 56% 0.00in /  0mm
15:32 56.8 °F /  13.8 °C 41.3 °F /  5.2 °C 29.93in /  1013.4hPa SW 6.0mph /  9.7km/h 12.0mph /  19.3km/h 56% 0.00in /  0mm
15:37 56.7 °F /  13.7 °C 40.7 °F /  4.8 °C 29.93in /  1013.4hPa WSW 6.0mph /  9.7km/h 13.0mph /  20.9km/h 55% 0.00in /  0mm
15:42 57.2 °F /  14 °C 41.7 °F /  5.4 °C 29.93in /  1013.4hPa SSW 6.0mph /  9.7km/h 10.0mph /  16.1km/h 56% 0.00in /  0mm
15:47 57.9 °F /  14.4 °C 42.8 °F /  6 °C 29.93in /  1013.4hPa West 3.0mph /  4.8km/h 8.0mph /  12.9km/h 57% 0.00in /  0mm
15:52 58.0 °F /  14.4 °C 43.3 °F /  6.3 °C 29.92in /  1013.1hPa SSW 5.0mph /  8km/h 11.0mph /  17.7km/h 58% 0.00in /  0mm
15:58 58.1 °F /  14.5 °C 42.5 °F /  5.8 °C 29.93in /  1013.4hPa WSW 6.0mph /  9.7km/h 8.0mph /  12.9km/h 56% 0.00in /  0mm
16:03 57.9 °F /  14.4 °C 41.8 °F /  5.4 °C 29.93in /  1013.4hPa SW 6.0mph /  9.7km/h 11.0mph /  17.7km/h 55% 0.00in /  0mm
16:08 57.5 °F /  14.2 °C 41.5 °F /  5.3 °C 29.93in /  1013.4hPa WSW 10.0mph /  16.1km/h 14.0mph /  22.5km/h 55% 0.00in /  0mm
16:13 57.4 °F /  14.1 °C 41.4 °F /  5.2 °C 29.93in /  1013.4hPa SW 9.0mph /  14.5km/h 11.0mph /  17.7km/h 55% 0.00in /  0mm
16:18 57.2 °F /  14 °C 41.7 °F /  5.4 °C 29.93in /  1013.4hPa West 6.0mph /  9.7km/h 11.0mph /  17.7km/h 56% 0.00in /  0mm
16:23 57.5 °F /  14.2 °C 42.4 °F /  5.8 °C 29.93in /  1013.4hPa SW 10.0mph /  16.1km/h 12.0mph /  19.3km/h 57% 0.00in /  0mm
16:28 57.6 °F /  14.2 °C 40.6 °F /  4.8 °C 29.93in /  1013.4hPa West 6.0mph /  9.7km/h 11.0mph /  17.7km/h 53% 0.00in /  0mm
16:33 57.5 °F /  14.2 °C 42.4 °F /  5.8 °C 29.93in /  1013.4hPa WSW 14.0mph /  22.5km/h 14.0mph /  22.5km/h 57% 0.00in /  0mm
16:38 57.4 °F /  14.1 °C 41.8 °F /  5.4 °C 29.94in /  1013.8hPa WSW 11.0mph /  17.7km/h 14.0mph /  22.5km/h 56% 0.00in /  0mm
16:43 56.8 °F /  13.8 °C 41.3 °F /  5.2 °C 29.94in /  1013.8hPa SW 9.0mph /  14.5km/h 9.0mph /  14.5km/h 56% 0.00in /  0mm
16:48 57.0 °F /  13.9 °C 41.9 °F /  5.5 °C 29.94in /  1013.8hPa SSW 8.0mph /  12.9km/h 8.0mph /  12.9km/h 57% 0.00in /  0mm
16:53 57.0 °F /  13.9 °C 41.9 °F /  5.5 °C 29.94in /  1013.8hPa SW 9.0mph /  14.5km/h 12.0mph /  19.3km/h 57% 0.00in /  0mm
16:58 56.7 °F /  13.7 °C 41.7 °F /  5.4 °C 29.94in /  1013.8hPa SSW 7.0mph /  11.3km/h 11.0mph /  17.7km/h 57% 0.00in /  0mm
17:03 56.3 °F /  13.5 °C 42.2 °F /  5.7 °C 29.95in /  1014.1hPa SW 9.0mph /  14.5km/h 12.0mph /  19.3km/h 59% 0.00in /  0mm
17:08 55.7 °F /  13.2 °C 40.7 °F /  4.8 °C 29.94in /  1013.8hPa SW 6.0mph /  9.7km/h 10.0mph /  16.1km/h 57% 0.00in /  0mm
17:13 55.4 °F /  13 °C 41.3 °F /  5.2 °C 29.95in /  1014.1hPa SW 10.0mph /  16.1km/h 10.0mph /  16.1km/h 59% 0.00in /  0mm
17:18 55.2 °F /  12.9 °C 41.1 °F /  5.1 °C 29.95in /  1014.1hPa SW 6.0mph /  9.7km/h 10.0mph /  16.1km/h 59% 0.00in /  0mm
17:23 54.9 °F /  12.7 °C 41.3 °F /  5.2 °C 29.95in /  1014.1hPa SW 5.0mph /  8km/h 12.0mph /  19.3km/h 60% 0.00in /  0mm
17:28 54.7 °F /  12.6 °C 41.5 °F /  5.3 °C 29.95in /  1014.1hPa West 4.0mph /  6.4km/h 8.0mph /  12.9km/h 61% 0.00in /  0mm
17:33 54.5 °F /  12.5 °C 42.2 °F /  5.7 °C 29.95in /  1014.1hPa SW 3.0mph /  4.8km/h 4.0mph /  6.4km/h 63% 0.00in /  0mm
17:38 54.2 °F /  12.3 °C 42.3 °F /  5.7 °C 29.95in /  1014.1hPa WSW 5.0mph /  8km/h 5.0mph /  8km/h 64% 0.00in /  0mm
17:43 53.9 °F /  12.2 °C 42.0 °F /  5.6 °C 29.96in /  1014.4hPa WSW 4.0mph /  6.4km/h 6.0mph /  9.7km/h 64% 0.00in /  0mm
17:48 53.8 °F /  12.1 °C 41.9 °F /  5.5 °C 29.96in /  1014.4hPa SW 5.0mph /  8km/h 5.0mph /  8km/h 64% 0.00in /  0mm
17:53 53.6 °F /  12 °C 41.7 °F /  5.4 °C 29.96in /  1014.4hPa WSW 3.0mph /  4.8km/h 6.0mph /  9.7km/h 64% 0.00in /  0mm
17:58 53.4 °F /  11.9 °C 41.1 °F /  5.1 °C 29.96in /  1014.4hPa WSW 5.0mph /  8km/h 7.0mph /  11.3km/h 63% 0.00in /  0mm
18:03 53.4 °F /  11.9 °C 41.5 °F /  5.3 °C 29.97in /  1014.8hPa West 4.0mph /  6.4km/h 6.0mph /  9.7km/h 64% 0.00in /  0mm
18:08 53.2 °F /  11.8 °C 41.3 °F /  5.2 °C 29.96in /  1014.4hPa WSW 3.0mph /  4.8km/h 5.0mph /  8km/h 64% 0.00in /  0mm
18:13 53.0 °F /  11.7 °C 41.2 °F /  5.1 °C 29.96in /  1014.4hPa WSW 2.0mph /  3.2km/h 5.0mph /  8km/h 64% 0.00in /  0mm
18:18 52.8 °F /  11.6 °C 41.4 °F /  5.2 °C 29.96in /  1014.4hPa WSW 4.0mph /  6.4km/h 4.0mph /  6.4km/h 65% 0.00in /  0mm
18:23 52.6 °F /  11.4 °C 41.6 °F /  5.3 °C 29.96in /  1014.4hPa SW 2.0mph /  3.2km/h 4.0mph /  6.4km/h 66% 0.00in /  0mm
18:28 52.4 °F /  11.3 °C 41.4 °F /  5.2 °C 29.96in /  1014.4hPa WSW 2.0mph /  3.2km/h 3.0mph /  4.8km/h 66% 0.00in /  0mm
18:33 52.4 °F /  11.3 °C 41.4 °F /  5.2 °C 29.97in /  1014.8hPa West 3.0mph /  4.8km/h 4.0mph /  6.4km/h 66% 0.00in /  0mm
18:38 52.3 °F /  11.3 °C 41.3 °F /  5.2 °C 29.97in /  1014.8hPa West 2.0mph /  3.2km/h 5.0mph /  8km/h 66% 0.00in /  0mm
18:43 52.2 °F /  11.2 °C 41.2 °F /  5.1 °C 29.98in /  1015.1hPa WSW 2.0mph /  3.2km/h 6.0mph /  9.7km/h 66% 0.00in /  0mm
18:48 52.0 °F /  11.1 °C 41.0 °F /  5 °C 29.98in /  1015.1hPa West 1.0mph /  1.6km/h 2.0mph /  3.2km/h 66% 0.00in /  0mm
18:53 51.9 °F /  11.1 °C 41.3 °F /  5.2 °C 29.98in /  1015.1hPa West 3.0mph /  4.8km/h 4.0mph /  6.4km/h 67% 0.00in /  0mm
18:58 51.8 °F /  11 °C 40.8 °F /  4.9 °C 29.98in /  1015.1hPa SW 3.0mph /  4.8km/h 3.0mph /  4.8km/h 66% 0.00in /  0mm
19:04 51.7 °F /  10.9 °C 41.1 °F /  5.1 °C 29.99in /  1015.5hPa WSW 3.0mph /  4.8km/h 4.0mph /  6.4km/h 67% 0.00in /  0mm
19:09 51.5 °F /  10.8 °C 40.9 °F /  4.9 °C 29.99in /  1015.5hPa WSW 2.0mph /  3.2km/h 3.0mph /  4.8km/h 67% 0.00in /  0mm
19:14 51.5 °F /  10.8 °C 40.9 °F /  4.9 °C 29.99in /  1015.5hPa WSW 3.0mph /  4.8km/h 3.0mph /  4.8km/h 67% 0.00in /  0mm
19:19 51.4 °F /  10.8 °C 41.2 °F /  5.1 °C 30.00in /  1015.8hPa West 1.0mph /  1.6km/h 2.0mph /  3.2km/h 68% 0.00in /  0mm
19:24 51.2 °F /  10.7 °C 41.0 °F /  5 °C 30.00in /  1015.8hPa West 1.0mph /  1.6km/h 2.0mph /  3.2km/h 68% 0.00in /  0mm
19:29 51.0 °F /  10.6 °C 40.8 °F /  4.9 °C 30.00in /  1015.8hPa West 2.0mph /  3.2km/h 4.0mph /  6.4km/h 68% 0.00in /  0mm
19:34 50.9 °F /  10.5 °C 40.7 °F /  4.8 °C 30.00in /  1015.8hPa SW 2.0mph /  3.2km/h 3.0mph /  4.8km/h 68% 0.00in /  0mm
19:39 50.8 °F /  10.4 °C 40.6 °F /  4.8 °C 30.00in /  1015.8hPa West 1.0mph /  1.6km/h 2.0mph /  3.2km/h 68% 0.00in /  0mm
19:44 50.6 °F /  10.3 °C 40.8 °F /  4.9 °C 30.00in /  1015.8hPa West 2.0mph /  3.2km/h 3.0mph /  4.8km/h 69% 0.00in /  0mm
19:49 50.5 °F /  10.3 °C 40.7 °F /  4.8 °C 30.01in /  1016.1hPa West 2.0mph /  3.2km/h 2.0mph /  3.2km/h 69% 0.00in /  0mm
19:54 50.3 °F /  10.2 °C 40.9 °F /  4.9 °C 30.01in /  1016.1hPa West 1.0mph /  1.6km/h 2.0mph /  3.2km/h 70% 0.00in /  0mm
19:59 50.2 °F /  10.1 °C 40.8 °F /  4.9 °C 30.01in /  1016.1hPa West 1.0mph /  1.6km/h 1.0mph /  1.6km/h 70% 0.00in /  0mm
20:04 50.1 °F /  10.1 °C 40.7 °F /  4.8 °C 30.01in /  1016.1hPa WSW 1.0mph /  1.6km/h 2.0mph /  3.2km/h 70% 0.00in /  0mm
20:09 50.0 °F /  10 °C 40.6 °F /  4.8 °C 30.02in /  1016.5hPa Calm   1.0mph /  1.6km/h 70% 0.00in /  0mm
20:14 49.7 °F /  9.8 °C 40.7 °F /  4.8 °C 30.01in /  1016.1hPa Calm   1.0mph /  1.6km/h 71% 0.00in /  0mm
20:19 49.5 °F /  9.7 °C 40.5 °F /  4.7 °C 30.02in /  1016.5hPa West 2.0mph /  3.2km/h 2.0mph /  3.2km/h 71% 0.00in /  0mm
20:24 49.5 °F /  9.7 °C 40.5 °F /  4.7 °C 30.02in /  1016.5hPa West 2.0mph /  3.2km/h 3.0mph /  4.8km/h 71% 0.00in /  0mm
20:29 49.5 °F /  9.7 °C 40.5 °F /  4.7 °C 30.02in /  1016.5hPa West 2.0mph /  3.2km/h 2.0mph /  3.2km/h 71% 0.00in /  0mm
20:35 49.5 °F /  9.7 °C 40.5 °F /  4.7 °C 30.02in /  1016.5hPa SW 2.0mph /  3.2km/h 2.0mph /  3.2km/h 71% 0.00in /  0mm
20:40 49.4 °F /  9.7 °C 40.4 °F /  4.7 °C 30.02in /  1016.5hPa WSW 1.0mph /  1.6km/h 2.0mph /  3.2km/h 71% 0.00in /  0mm
20:45 49.3 °F /  9.6 °C 40.3 °F /  4.6 °C 30.02in /  1016.5hPa SW 2.0mph /  3.2km/h 2.0mph /  3.2km/h 71% 0.00in /  0mm
20:50 49.3 °F /  9.6 °C 40.3 °F /  4.6 °C 30.03in /  1016.8hPa WSW 1.0mph /  1.6km/h 3.0mph /  4.8km/h 71% 0.00in /  0mm
20:55 49.2 °F /  9.6 °C 40.2 °F /  4.6 °C 30.03in /  1016.8hPa WSW 2.0mph /  3.2km/h 3.0mph /  4.8km/h 71% 0.00in /  0mm
21:00 49.1 °F /  9.5 °C 40.1 °F /  4.5 °C 30.03in /  1016.8hPa WSW 2.0mph /  3.2km/h 3.0mph /  4.8km/h 71% 0.00in /  0mm
21:05 49.0 °F /  9.4 °C 40.0 °F /  4.4 °C 30.03in /  1016.8hPa WSW 1.0mph /  1.6km/h 3.0mph /  4.8km/h 71% 0.00in /  0mm
21:10 48.7 °F /  9.3 °C 39.7 °F /  4.3 °C 30.03in /  1016.8hPa WSW 1.0mph /  1.6km/h 2.0mph /  3.2km/h 71% 0.00in /  0mm
21:15 48.4 °F /  9.1 °C 39.8 °F /  4.3 °C 30.02in /  1016.5hPa WSW 1.0mph /  1.6km/h 1.0mph /  1.6km/h 72% 0.00in /  0mm
21:20 48.2 °F /  9 °C 39.6 °F /  4.2 °C 30.03in /  1016.8hPa West 1.0mph /  1.6km/h 1.0mph /  1.6km/h 72% 0.00in /  0mm
21:25 48.1 °F /  8.9 °C 39.5 °F /  4.2 °C 30.02in /  1016.5hPa West 1.0mph /  1.6km/h 1.0mph /  1.6km/h 72% 0.00in /  0mm
21:30 47.9 °F /  8.8 °C 39.7 °F /  4.3 °C 30.03in /  1016.8hPa Calm   1.0mph /  1.6km/h 73% 0.00in /  0mm
21:35 47.5 °F /  8.6 °C 39.3 °F /  4.1 °C 30.03in /  1016.8hPa Calm     73% 0.00in /  0mm
21:40 47.1 °F /  8.4 °C 39.2 °F /  4 °C 30.03in /  1016.8hPa West 1.0mph /  1.6km/h 1.0mph /  1.6km/h 74% 0.00in /  0mm
21:45 46.6 °F /  8.1 °C 39.1 °F /  3.9 °C 30.03in /  1016.8hPa Calm   1.0mph /  1.6km/h 75% 0.00in /  0mm
21:50 46.3 °F /  7.9 °C 39.2 °F /  4 °C 30.04in /  1017.2hPa WNW 1.0mph /  1.6km/h 1.0mph /  1.6km/h 76% 0.00in /  0mm
21:55 46.3 °F /  7.9 °C 39.2 °F /  4 °C 30.05in /  1017.5hPa WNW 1.0mph /  1.6km/h 1.0mph /  1.6km/h 76% 0.00in /  0mm
22:00 46.2 °F /  7.9 °C 39.1 °F /  3.9 °C 30.05in /  1017.5hPa Calm   1.0mph /  1.6km/h 76% 0.00in /  0mm
22:05 46.2 °F /  7.9 °C 39.4 °F /  4.1 °C 30.05in /  1017.5hPa Calm   1.0mph /  1.6km/h 77% 0.00in /  0mm
22:10 46.2 °F /  7.9 °C 39.4 °F /  4.1 °C 30.05in /  1017.5hPa Calm   1.0mph /  1.6km/h 77% 0.00in /  0mm
22:15 46.2 °F /  7.9 °C 39.4 °F /  4.1 °C 30.06in /  1017.8hPa West 1.0mph /  1.6km/h 2.0mph /  3.2km/h 77% 0.00in /  0mm
22:20 46.1 °F /  7.8 °C 39.3 °F /  4.1 °C 30.06in /  1017.8hPa Calm   1.0mph /  1.6km/h 77% 0.00in /  0mm
22:25 46.0 °F /  7.8 °C 39.2 °F /  4 °C 30.06in /  1017.8hPa Calm     77% 0.00in /  0mm
22:30 45.8 °F /  7.7 °C 39.0 °F /  3.9 °C 30.06in /  1017.8hPa Calm     77% 0.00in /  0mm
22:35 45.6 °F /  7.6 °C 38.8 °F /  3.8 °C 30.06in /  1017.8hPa Calm   1.0mph /  1.6km/h 77% 0.00in /  0mm
22:36 45.5 °F /  7.5 °C 38.7 °F /  3.7 °C 30.06in /  1017.8hPa Calm   1.0mph /  1.6km/h 77% 0.00in /  0mm
22:41 45.2 °F /  7.3 °C 38.8 °F /  3.8 °C 30.06in /  1017.8hPa Calm   1.0mph /  1.6km/h 78% 0.00in /  0mm
22:46 45.1 °F /  7.3 °C 38.7 °F /  3.7 °C 30.05in /  1017.5hPa Calm     78% 0.00in /  0mm
22:51 44.9 °F /  7.2 °C 38.5 °F /  3.6 °C 30.06in /  1017.8hPa Calm     78% 0.00in /  0mm
22:56 44.5 °F /  6.9 °C 38.4 °F /  3.6 °C 30.06in /  1017.8hPa Calm     79% 0.00in /  0mm
23:01 44.0 °F /  6.7 °C 38.2 °F /  3.4 °C 30.05in /  1017.5hPa Calm     80% 0.00in /  0mm
23:06 43.6 °F /  6.4 °C 38.2 °F /  3.4 °C 30.05in /  1017.5hPa Calm     81% 0.00in /  0mm
23:11 43.6 °F /  6.4 °C 38.2 °F /  3.4 °C 30.05in /  1017.5hPa Calm     81% 0.00in /  0mm
23:16 43.4 °F /  6.3 °C 38.0 °F /  3.3 °C 30.06in /  1017.8hPa Calm     81% 0.00in /  0mm
23:21 43.0 °F /  6.1 °C 37.6 °F /  3.1 °C 30.06in /  1017.8hPa Calm     81% 0.00in /  0mm
23:26 42.4 °F /  5.8 °C 37.3 °F /  2.9 °C 30.06in /  1017.8hPa Calm     82% 0.00in /  0mm
23:31 41.8 °F /  5.4 °C 37.3 °F /  2.9 °C 30.06in /  1017.8hPa Calm     84% 0.00in /  0mm
23:36 41.7 °F /  5.4 °C 37.5 °F /  3.1 °C 30.06in /  1017.8hPa Calm     85% 0.00in /  0mm
23:42 41.8 °F /  5.4 °C 37.3 °F /  2.9 °C 30.07in /  1018.2hPa Calm     84% 0.00in /  0mm
23:47 41.9 °F /  5.5 °C 37.7 °F /  3.2 °C 30.07in /  1018.2hPa Calm     85% 0.00in /  0mm
23:52 42.0 °F /  5.6 °C 37.5 °F /  3.1 °C 30.06in /  1017.8hPa West 1.0mph /  1.6km/h 1.0mph /  1.6km/h 84% 0.00in /  0mm
23:57 42.2 °F /  5.7 °C 37.7 °F /  3.2 °C 30.07in /  1018.2hPa WNW 1.0mph /  1.6km/h 1.0mph /  1.6km/h 84% 0.00in /  0mm
Compliments of Weather Underground